createdAt,value
2018-05-27T00:01:44.816Z,15.40
2018-05-27T00:04:50.039Z,11.23
2018-05-27T00:07:55.772Z,15.43
2018-05-27T00:11:01.009Z,17.37
2018-05-27T00:14:05.998Z,16.07
2018-05-27T00:17:12.043Z,12.07
2018-05-27T00:20:17.257Z,13.73
2018-05-27T00:23:22.471Z,15.70
2018-05-27T00:26:27.689Z,16.10
2018-05-27T00:29:33.839Z,15.40
2018-05-27T00:32:40.001Z,18.90
2018-05-27T00:35:45.962Z,20.40
2018-05-27T00:38:51.170Z,15.33
2018-05-27T00:41:56.400Z,16.30
2018-05-27T00:45:02.139Z,18.67
2018-05-27T00:48:07.359Z,19.87
2018-05-27T00:51:12.585Z,20.90
2018-05-27T00:54:18.324Z,21.03
2018-05-27T00:57:24.177Z,25.40
2018-05-27T01:00:29.412Z,21.30
2018-05-27T01:03:35.135Z,19.47
2018-05-27T01:06:40.985Z,27.43
2018-05-27T01:09:47.714Z,21.20
2018-05-27T01:12:53.941Z,23.93
2018-05-27T01:15:59.304Z,40.17
2018-05-27T01:19:04.011Z,25.77
2018-05-27T01:22:08.959Z,30.33
2018-05-27T01:25:14.802Z,35.97
2018-05-27T01:28:19.746Z,33.17
2018-05-27T01:31:24.981Z,26.73
2018-05-27T01:34:31.151Z,29.43
2018-05-27T01:37:36.474Z,27.57
2018-05-27T01:40:41.703Z,29.27
2018-05-27T01:43:46.922Z,26.63
2018-05-27T01:46:52.974Z,21.67
2018-05-27T01:49:59.190Z,25.30
2018-05-27T01:53:05.051Z,24.80
2018-05-27T01:56:11.092Z,29.63
2018-05-27T01:59:16.844Z,25.80
2018-05-27T02:02:23.610Z,25.97
2018-05-27T02:05:29.365Z,20.70
2018-05-27T02:08:34.297Z,23.43
2018-05-27T02:11:39.644Z,23.37
2018-05-27T02:14:44.663Z,38.87
2018-05-27T02:17:49.878Z,24.10
2018-05-27T02:20:55.797Z,20.93
2018-05-27T02:24:01.612Z,24.40
2018-05-27T02:27:07.132Z,23.83
2018-05-27T02:30:12.346Z,26.00
2018-05-27T02:33:18.902Z,24.67
2018-05-27T02:36:24.574Z,21.33
2018-05-27T02:39:30.629Z,27.07
2018-05-27T02:42:35.854Z,22.50
2018-05-27T02:45:41.594Z,21.27
2018-05-27T02:48:46.836Z,21.00
2018-05-27T02:51:52.068Z,19.83
2018-05-27T02:54:58.100Z,19.07
2018-05-27T02:58:05.817Z,19.10
2018-05-27T03:01:11.642Z,18.17
2018-05-27T03:04:17.496Z,19.83
2018-05-27T03:07:23.629Z,17.30
2018-05-27T03:10:29.378Z,22.87
2018-05-27T03:13:34.722Z,17.63
2018-05-27T03:16:41.873Z,15.53
2018-05-27T03:19:47.543Z,16.43
2018-05-27T03:22:53.508Z,19.27
2018-05-27T03:25:59.365Z,13.53
2018-05-27T03:29:05.565Z,17.67
2018-05-27T03:32:10.801Z,20.87
2018-05-27T03:35:17.443Z,17.97
2018-05-27T03:38:22.657Z,15.97
2018-05-27T03:41:28.405Z,17.73
2018-05-27T03:44:35.088Z,16.37
2018-05-27T03:47:40.301Z,20.90
2018-05-27T03:50:46.250Z,22.60
2018-05-27T03:53:52.391Z,18.23
2018-05-27T03:56:57.422Z,17.90
2018-05-27T04:00:02.653Z,20.03
2018-05-27T04:03:09.213Z,21.80
2018-05-27T04:06:25.165Z,21.60
2018-05-27T04:09:30.517Z,19.80
2018-05-27T04:12:36.365Z,22.67
2018-05-27T04:15:42.398Z,19.77
2018-05-27T04:18:48.548Z,20.03
2018-05-27T04:21:53.771Z,21.07
2018-05-27T04:24:59.888Z,22.40
2018-05-27T04:28:05.589Z,21.77
2018-05-27T04:31:11.626Z,23.40
2018-05-27T04:34:16.844Z,21.10
2018-05-27T04:37:22.985Z,17.37
2018-05-27T04:40:28.633Z,18.67
2018-05-27T04:43:34.769Z,23.30
2018-05-27T04:46:40.910Z,29.67
2018-05-27T04:49:46.245Z,32.13
2018-05-27T04:52:51.176Z,24.53
2018-05-27T04:55:57.033Z,25.83
2018-05-27T04:59:02.300Z,27.17
2018-05-27T05:02:07.427Z,29.40
2018-05-27T05:05:12.653Z,29.90
2018-05-27T05:08:18.310Z,35.13
2018-05-27T05:11:23.537Z,30.03
2018-05-27T05:14:28.765Z,29.00
2018-05-27T05:17:33.985Z,27.43
2018-05-27T05:20:40.119Z,34.17
2018-05-27T05:23:46.279Z,31.50
2018-05-27T05:26:52.501Z,35.23
2018-05-27T05:29:58.332Z,30.87
2018-05-27T05:33:04.480Z,35.43
2018-05-27T05:36:09.690Z,30.47
2018-05-27T05:39:15.830Z,36.10
2018-05-27T05:42:20.766Z,34.60
2018-05-27T05:45:26.810Z,35.57
2018-05-27T05:48:33.853Z,42.03
2018-05-27T05:51:39.493Z,37.30
2018-05-27T05:54:44.722Z,32.47
2018-05-27T05:57:49.952Z,26.67
2018-05-27T06:00:55.653Z,25.20
2018-05-27T06:04:01.292Z,27.30
2018-05-27T06:07:07.428Z,24.00
2018-05-27T06:10:13.262Z,21.63
2018-05-27T06:13:18.526Z,21.97
2018-05-27T06:16:24.642Z,22.17
2018-05-27T06:19:30.072Z,21.50
2018-05-27T06:22:35.982Z,15.57
2018-05-27T06:25:41.246Z,12.77
2018-05-27T06:28:47.536Z,15.87
2018-05-27T06:31:53.574Z,11.33
2018-05-27T06:34:59.529Z,10.17
2018-05-27T06:38:05.462Z,14.10
2018-05-27T06:41:11.330Z,17.40
2018-05-27T06:44:16.560Z,14.37
2018-05-27T06:47:22.774Z,12.37
2018-05-27T06:50:28.590Z,10.37
2018-05-27T06:53:33.805Z,10.47
2018-05-27T06:56:39.405Z,7.83
2018-05-27T06:59:45.542Z,8.00
2018-05-27T07:02:51.673Z,7.97
2018-05-27T07:05:56.882Z,10.40
2018-05-27T07:09:01.822Z,14.70
2018-05-27T07:12:06.753Z,9.73
2018-05-27T07:15:12.153Z,9.00
2018-05-27T07:18:17.365Z,7.87
2018-05-27T07:21:23.106Z,8.73
2018-05-27T07:24:29.234Z,8.33
2018-05-27T07:27:34.429Z,7.63
2018-05-27T07:30:40.169Z,10.93
2018-05-27T07:33:46.297Z,12.60
2018-05-27T07:36:51.666Z,10.60
2018-05-27T07:39:56.882Z,10.53
2018-05-27T07:43:01.819Z,11.13
2018-05-27T07:46:07.026Z,9.90
2018-05-27T07:49:12.230Z,15.67
2018-05-27T07:52:17.453Z,11.20
2018-05-27T07:55:22.409Z,11.30
2018-05-27T07:58:27.708Z,10.23
2018-05-27T08:01:33.792Z,10.20
2018-05-27T08:04:39.717Z,11.63
2018-05-27T08:07:45.557Z,13.20
2018-05-27T08:10:51.595Z,11.90
2018-05-27T08:13:57.545Z,12.27
2018-05-27T08:17:03.411Z,12.73
2018-05-27T08:20:09.538Z,16.07
2018-05-27T08:23:14.257Z,11.30
2018-05-27T08:26:19.489Z,11.43
2018-05-27T08:29:24.419Z,9.87
2018-05-27T08:32:30.085Z,9.10
2018-05-27T08:35:35.294Z,11.00
2018-05-27T08:38:41.416Z,9.60
2018-05-27T08:41:47.042Z,8.20
2018-05-27T08:44:53.244Z,9.27
2018-05-27T08:47:59.066Z,7.70
2018-05-27T08:51:05.423Z,7.73
2018-05-27T08:54:10.620Z,7.23
2018-05-27T08:57:15.577Z,9.47
2018-05-27T09:00:21.097Z,12.70
2018-05-27T09:03:26.801Z,9.60
2018-05-27T09:06:32.014Z,8.40
2018-05-27T09:09:37.240Z,8.83
2018-05-27T09:12:43.092Z,6.90
2018-05-27T09:15:48.010Z,6.90
2018-05-27T09:18:53.892Z,6.20
2018-05-27T09:21:59.005Z,5.73
2018-05-27T09:25:04.868Z,10.47
2018-05-27T09:28:09.985Z,5.80
2018-05-27T09:31:14.920Z,5.90
2018-05-27T09:34:20.813Z,6.40
2018-05-27T09:37:25.729Z,6.73
2018-05-27T09:40:31.266Z,8.23
2018-05-27T09:43:36.805Z,8.03
2018-05-27T09:46:43.076Z,7.53
2018-05-27T09:49:48.604Z,10.53
2018-05-27T09:52:53.737Z,6.60
2018-05-27T09:55:59.402Z,9.93
2018-05-27T09:59:04.377Z,10.67
2018-05-27T10:02:10.002Z,7.53
2018-05-27T10:05:15.863Z,7.30
2018-05-27T10:08:21.700Z,7.27
2018-05-27T10:11:27.541Z,9.77
2018-05-27T10:14:32.466Z,7.57
2018-05-27T10:17:38.295Z,7.60
2018-05-27T10:20:44.255Z,6.30
2018-05-27T10:23:50.183Z,8.70
2018-05-27T10:26:56.318Z,7.07
2018-05-27T10:30:01.963Z,5.87
2018-05-27T10:33:06.893Z,5.87
2018-05-27T10:36:12.812Z,6.30
2018-05-27T10:39:18.675Z,7.23
2018-05-27T10:42:24.051Z,8.93
2018-05-27T10:45:30.157Z,7.00
2018-05-27T10:48:35.541Z,6.90
2018-05-27T10:51:40.470Z,10.57
2018-05-27T10:54:46.378Z,8.13
2018-05-27T10:57:52.554Z,11.33
2018-05-27T11:00:57.905Z,8.53
2018-05-27T11:04:03.258Z,8.17
2018-05-27T11:07:08.193Z,12.43
2018-05-27T11:10:13.139Z,10.07
2018-05-27T11:13:18.339Z,9.30
2018-05-27T11:16:23.309Z,9.47
2018-05-27T11:19:28.240Z,10.67
2018-05-27T11:22:33.185Z,11.20
2018-05-27T11:25:38.867Z,12.80
2018-05-27T11:28:44.709Z,8.97
2018-05-27T11:31:50.082Z,8.30
2018-05-27T11:34:55.013Z,10.40
2018-05-27T11:38:01.585Z,8.40
2018-05-27T11:41:06.725Z,14.50
2018-05-27T11:44:12.264Z,8.87
2018-05-27T11:47:17.888Z,8.77
2018-05-27T11:50:23.834Z,7.03
2018-05-27T11:53:28.773Z,7.17
2018-05-27T11:56:34.520Z,6.73
2018-05-27T11:59:39.722Z,6.73
2018-05-27T12:02:44.615Z,6.07
2018-05-27T12:05:50.085Z,5.80
2018-05-27T12:08:55.122Z,6.07
2018-05-27T12:12:00.040Z,4.90
2018-05-27T12:15:05.172Z,4.70
2018-05-27T12:18:10.102Z,4.50
2018-05-27T12:21:15.320Z,9.87
2018-05-27T12:24:21.053Z,6.37
2018-05-27T12:27:26.569Z,5.53
2018-05-27T12:30:31.513Z,5.33
2018-05-27T12:33:36.855Z,5.40
2018-05-27T12:36:42.691Z,4.40
2018-05-27T12:39:48.715Z,5.00
2018-05-27T12:42:54.363Z,8.40
2018-05-27T12:45:59.568Z,5.10
2018-05-27T12:49:04.777Z,8.20
2018-05-27T12:52:09.724Z,4.87
2018-05-27T12:55:15.174Z,5.77
2018-05-27T12:58:20.601Z,4.90
2018-05-27T13:01:25.619Z,8.60
2018-05-27T13:04:31.344Z,5.20
2018-05-27T13:07:36.570Z,4.37
2018-05-27T13:10:42.016Z,6.53
2018-05-27T13:13:47.849Z,3.67
2018-05-27T13:16:54.861Z,5.87
2018-05-27T13:20:00.159Z,3.60
2018-05-27T13:23:06.556Z,4.30
2018-05-27T13:26:11.758Z,5.43
2018-05-27T13:29:17.094Z,5.03
2018-05-27T13:32:22.582Z,6.80
2018-05-27T13:35:28.415Z,5.73
2018-05-27T13:38:33.366Z,5.77
2018-05-27T13:41:39.209Z,5.33
2018-05-27T13:44:44.553Z,5.13
2018-05-27T13:47:49.754Z,5.93
2018-05-27T13:50:55.849Z,6.47
2018-05-27T13:54:01.765Z,6.30
2018-05-27T13:57:06.694Z,10.40
2018-05-27T14:00:13.044Z,7.53
2018-05-27T14:03:19.418Z,6.77
2018-05-27T14:06:25.777Z,6.77
2018-05-27T14:09:31.905Z,9.40
2018-05-27T14:12:37.230Z,6.47
2018-05-27T14:15:42.445Z,7.00
2018-05-27T14:18:48.333Z,8.10
2018-05-27T14:21:53.741Z,10.03
2018-05-27T14:24:58.685Z,8.57
2018-05-27T14:28:03.597Z,7.17
2018-05-27T14:31:08.531Z,7.83
2018-05-27T14:34:14.353Z,8.07
2018-05-27T14:37:19.696Z,8.03
2018-05-27T14:40:26.278Z,7.13
2018-05-27T14:43:31.821Z,6.90
2018-05-27T14:46:36.757Z,8.17
2018-05-27T14:49:41.682Z,7.10
2018-05-27T14:52:46.889Z,8.27
2018-05-27T14:55:52.747Z,6.10
2018-05-27T14:58:58.125Z,7.40
2018-05-27T15:02:03.985Z,6.50
2018-05-27T15:05:09.199Z,6.37
2018-05-27T15:08:14.125Z,5.70
2018-05-27T15:11:20.246Z,5.43
2018-05-27T15:14:25.647Z,5.43
2018-05-27T15:17:32.583Z,5.60
2018-05-27T15:20:38.183Z,5.63
2018-05-27T15:23:44.318Z,5.43
2018-05-27T15:26:50.059Z,9.00
2018-05-27T15:29:55.275Z,5.90
2018-05-27T15:33:00.481Z,8.57
2018-05-27T15:36:05.825Z,7.30
2018-05-27T15:39:10.757Z,6.93
2018-05-27T15:42:16.315Z,5.80
2018-05-27T15:45:21.514Z,5.80
2018-05-27T15:48:27.141Z,6.87
2018-05-27T15:51:33.009Z,6.33
2018-05-27T15:54:38.650Z,8.60
2018-05-27T15:57:43.659Z,8.17
2018-05-27T16:00:49.395Z,11.23
2018-05-27T16:03:54.325Z,7.93
2018-05-27T16:06:59.866Z,6.90
2018-05-27T16:10:04.463Z,7.20
2018-05-27T16:13:10.920Z,6.33
2018-05-27T16:16:16.572Z,8.83
2018-05-27T16:19:22.430Z,7.30
2018-05-27T16:22:28.557Z,6.40
2018-05-27T16:25:34.162Z,5.93
2018-05-27T16:28:39.365Z,6.23
2018-05-27T16:31:45.221Z,6.20
2018-05-27T16:34:50.267Z,5.97
2018-05-27T16:37:55.884Z,11.23
2018-05-27T16:41:01.109Z,6.37
2018-05-27T16:44:06.027Z,14.23
2018-05-27T16:47:12.599Z,9.27
2018-05-27T16:50:18.526Z,7.20
2018-05-27T16:53:23.449Z,8.23
2018-05-27T16:56:28.882Z,6.77
2018-05-27T16:59:34.226Z,7.50
2018-05-27T17:02:39.474Z,6.60
2018-05-27T17:05:45.844Z,7.10
2018-05-27T17:08:51.182Z,7.00
2018-05-27T17:11:56.117Z,7.30
2018-05-27T17:15:01.326Z,6.77
2018-05-27T17:18:07.170Z,6.77
2018-05-27T17:21:13.455Z,7.43
2018-05-27T17:24:18.799Z,6.37
2018-05-27T17:27:23.753Z,7.43
2018-05-27T17:30:29.224Z,8.27
2018-05-27T17:33:34.197Z,8.37
2018-05-27T17:36:39.118Z,9.07
2018-05-27T17:39:44.285Z,8.40
2018-05-27T17:42:50.199Z,8.07
2018-05-27T17:45:56.044Z,7.80
2018-05-27T17:49:01.248Z,8.90
2018-05-27T17:52:07.116Z,7.37
2018-05-27T17:55:12.744Z,9.60
2018-05-27T17:58:18.831Z,12.17
2018-05-27T18:01:24.010Z,10.33
2018-05-27T18:04:29.694Z,8.50
2018-05-27T18:07:34.914Z,9.53
2018-05-27T18:10:39.854Z,8.77
2018-05-27T18:13:45.104Z,11.53
2018-05-27T18:16:51.305Z,11.17
2018-05-27T18:19:57.440Z,9.33
2018-05-27T18:23:03.573Z,10.00
2018-05-27T18:26:08.954Z,9.50
2018-05-27T18:29:13.874Z,10.87
2018-05-27T18:32:19.338Z,9.37
2018-05-27T18:35:24.277Z,10.30
2018-05-27T18:38:29.853Z,12.70
2018-05-27T18:41:35.684Z,10.50
2018-05-27T18:44:41.459Z,14.97
2018-05-27T18:47:47.219Z,10.20
2018-05-27T18:50:52.229Z,10.40
2018-05-27T18:53:57.896Z,11.00
2018-05-27T18:57:03.746Z,9.30
2018-05-27T19:00:10.066Z,10.70
2018-05-27T19:03:15.196Z,9.33
2018-05-27T19:06:21.806Z,9.57
2018-05-27T19:09:26.806Z,13.00
2018-05-27T19:12:32.453Z,10.60
2018-05-27T19:15:37.390Z,9.63
2018-05-27T19:18:43.144Z,10.80
2018-05-27T19:21:49.116Z,11.33
2018-05-27T19:24:54.640Z,11.50
2018-05-27T19:28:00.589Z,11.53
2018-05-27T19:31:06.157Z,11.80
2018-05-27T19:34:11.081Z,11.53
2018-05-27T19:37:16.616Z,11.73
2018-05-27T19:40:21.537Z,12.40
2018-05-27T19:43:27.564Z,11.60
2018-05-27T19:46:33.172Z,10.83
2018-05-27T19:49:38.728Z,14.63
2018-05-27T19:52:44.829Z,10.93
2018-05-27T19:55:50.370Z,12.03
2018-05-27T19:58:55.402Z,11.87
2018-05-27T20:02:00.372Z,10.40
2018-05-27T20:05:07.226Z,12.90
2018-05-27T20:08:13.553Z,11.30
2018-05-27T20:11:18.953Z,12.97
2018-05-27T20:14:23.893Z,12.60
2018-05-27T20:17:29.994Z,11.27
2018-05-27T20:20:35.041Z,13.57
2018-05-27T20:23:40.122Z,10.30
2018-05-27T20:26:45.212Z,12.23
2018-05-27T20:29:52.174Z,12.20
2018-05-27T20:32:58.026Z,12.03
2018-05-27T20:36:03.737Z,13.20
2018-05-27T20:39:09.638Z,13.30
2018-05-27T20:42:14.570Z,12.37
2018-05-27T20:45:19.985Z,12.27
2018-05-27T20:48:25.031Z,10.63
2018-05-27T20:51:30.926Z,10.40
2018-05-27T20:54:36.865Z,13.40
2018-05-27T20:57:42.406Z,12.10
2018-05-27T21:00:52.469Z,13.60
2018-05-27T21:03:57.423Z,15.23
2018-05-27T21:07:02.889Z,14.37
2018-05-27T21:10:08.733Z,17.53
2018-05-27T21:13:14.080Z,14.37
2018-05-27T21:16:19.020Z,20.37
2018-05-27T21:19:24.489Z,19.70
2018-05-27T21:22:30.620Z,19.33
2018-05-27T21:25:36.135Z,15.93
2018-05-27T21:28:41.103Z,23.70
2018-05-27T21:31:46.965Z,17.60
2018-05-27T21:34:51.913Z,17.63
2018-05-27T21:37:57.657Z,14.90
2018-05-27T21:41:03.521Z,16.73
2018-05-27T21:44:09.373Z,18.30
2018-05-27T21:47:15.130Z,20.53
2018-05-27T21:50:20.488Z,19.10
2018-05-27T21:53:25.434Z,20.50
2018-05-27T21:56:30.824Z,19.67
2018-05-27T21:59:36.878Z,16.67
2018-05-27T22:02:42.097Z,16.80
2018-05-27T22:05:47.958Z,21.20
2018-05-27T22:08:54.737Z,14.43
2018-05-27T22:12:00.111Z,16.73
2018-05-27T22:15:06.153Z,17.80
2018-05-27T22:18:11.994Z,14.13
2018-05-27T22:21:17.025Z,16.20
2018-05-27T22:24:22.918Z,19.67
2018-05-27T22:27:28.277Z,14.70
2018-05-27T22:30:33.240Z,14.00
2018-05-27T22:33:39.117Z,13.73
2018-05-27T22:36:44.257Z,12.93
2018-05-27T22:39:50.613Z,16.27
2018-05-27T22:42:56.160Z,13.27
2018-05-27T22:46:02.022Z,13.60
2018-05-27T22:49:07.380Z,14.60
2018-05-27T22:52:12.844Z,20.37
2018-05-27T22:55:18.118Z,17.30
2018-05-27T22:58:22.830Z,12.00
2018-05-27T23:01:28.240Z,13.67
2018-05-27T23:04:33.856Z,11.80
2018-05-27T23:07:39.069Z,10.90
2018-05-27T23:10:45.210Z,12.40
2018-05-27T23:13:51.021Z,11.17
2018-05-27T23:16:56.869Z,10.00
2018-05-27T23:20:02.892Z,14.57
2018-05-27T23:23:09.006Z,8.87
2018-05-27T23:26:14.209Z,8.87
2018-05-27T23:29:19.429Z,11.47
2018-05-27T23:32:24.636Z,7.77
2018-05-27T23:35:29.562Z,7.00
2018-05-27T23:38:34.765Z,7.43
2018-05-27T23:41:39.637Z,7.67
2018-05-27T23:44:45.245Z,6.63
2018-05-27T23:47:50.880Z,7.37
2018-05-27T23:50:56.081Z,5.17
2018-05-27T23:54:02.449Z,6.13
2018-05-27T23:57:08.475Z,5.77
